createdAt,value
2018-01-04T00:04:42.151Z," 7.40"
2018-01-04T00:09:38.159Z," 7.48"
2018-01-04T00:14:34.799Z," 7.53"
2018-01-04T00:19:30.376Z," 7.45"
2018-01-04T00:24:25.913Z," 7.40"
2018-01-04T00:29:22.657Z," 7.40"
2018-01-04T00:34:19.152Z," 7.39"
2018-01-04T00:39:14.521Z," 7.35"
2018-01-04T00:44:12.006Z," 7.45"
2018-01-04T00:49:07.439Z," 7.31"
2018-01-04T00:54:04.106Z," 7.42"
2018-01-04T00:58:59.475Z," 7.40"
2018-01-04T01:03:56.538Z," 7.40"
2018-01-04T01:08:53.053Z," 7.45"
2018-01-04T01:13:49.558Z," 7.57"
2018-01-04T01:18:46.559Z," 7.56"
2018-01-04T01:23:43.017Z," 7.60"
2018-01-04T01:28:38.190Z," 7.60"
2018-01-04T01:33:34.711Z," 7.57"
2018-01-04T01:38:30.347Z," 7.69"
2018-01-04T01:43:26.207Z," 7.70"
2018-01-04T01:48:22.076Z," 7.72"
2018-01-04T01:53:17.897Z," 7.76"
2018-01-04T01:58:13.545Z," 7.67"
2018-01-04T02:03:10.282Z," 7.76"
2018-01-04T02:08:05.628Z," 7.80"
2018-01-04T02:13:02.365Z," 7.77"
2018-01-04T02:17:57.705Z," 7.80"
2018-01-04T02:22:54.622Z," 7.70"
2018-01-04T02:27:50.130Z," 7.76"
2018-01-04T02:32:47.130Z," 7.80"
2018-01-04T02:37:42.518Z," 7.80"
2018-01-04T02:42:38.072Z," 7.72"
2018-01-04T02:47:33.717Z," 7.75"
2018-01-04T02:52:29.801Z," 7.70"
2018-01-04T02:57:27.545Z," 7.69"
2018-01-04T03:02:22.822Z," 7.69"
2018-01-04T03:07:18.640Z," 7.60"
2018-01-04T03:12:14.398Z," 7.57"
2018-01-04T03:17:10.208Z," 7.56"
2018-01-04T03:22:05.960Z," 7.58"
2018-01-04T03:27:01.822Z," 7.67"
2018-01-04T03:31:58.661Z," 7.66"
2018-01-04T03:36:54.451Z," 7.58"
2018-01-04T03:41:50.133Z," 7.61"
2018-01-04T03:46:47.221Z," 7.60"
2018-01-04T03:51:42.879Z," 7.61"
2018-01-04T03:56:38.586Z," 7.75"
2018-01-04T04:01:34.325Z," 7.67"
2018-01-04T04:06:30.932Z," 7.67"
2018-01-04T04:11:26.168Z," 7.69"
2018-01-04T04:16:22.398Z," 7.60"
2018-01-04T04:21:18.207Z," 7.80"
2018-01-04T04:26:15.278Z," 7.85"
2018-01-04T04:31:11.688Z," 7.80"
2018-01-04T04:36:07.492Z," 7.82"
2018-01-04T04:41:03.220Z," 7.97"
2018-01-04T04:45:59.081Z," 7.95"
2018-01-04T04:50:54.846Z," 7.93"
2018-01-04T04:55:51.391Z," 7.88"
2018-01-04T05:00:47.125Z," 7.82"
2018-01-04T05:05:42.735Z," 7.87"
2018-01-04T05:10:38.325Z," 7.79"
2018-01-04T05:15:34.999Z," 7.82"
2018-01-04T05:20:30.690Z," 7.80"
2018-01-04T05:25:27.361Z," 7.83"
2018-01-04T05:30:22.856Z," 7.82"
2018-01-04T05:35:18.624Z," 7.85"
2018-01-04T05:40:14.287Z," 7.79"
2018-01-04T05:45:10.265Z," 7.80"
2018-01-04T05:50:06.219Z," 7.83"
2018-01-04T05:55:02.670Z," 7.87"
2018-01-04T05:59:58.212Z," 7.76"
2018-01-04T06:04:53.750Z," 7.70"
2018-01-04T06:09:49.447Z," 7.66"
2018-01-04T06:14:45.125Z," 7.76"
2018-01-04T06:19:40.877Z," 7.80"
2018-01-04T06:24:36.762Z," 7.79"
2018-01-04T06:29:33.783Z," 7.69"
2018-01-04T06:34:29.116Z," 7.67"
2018-01-04T06:39:24.663Z," 7.66"
2018-01-04T06:44:21.487Z," 7.69"
2018-01-04T06:49:16.920Z," 7.69"
2018-01-04T06:54:13.084Z," 7.56"
2018-01-04T06:59:09.776Z," 7.61"
2018-01-04T07:04:05.307Z," 7.67"
2018-01-04T07:09:02.015Z," 7.58"
2018-01-04T07:13:57.512Z," 7.61"
2018-01-04T07:18:53.212Z," 7.56"
2018-01-04T07:23:50.063Z," 7.53"
2018-01-04T07:28:45.375Z," 7.58"
2018-01-04T07:33:41.162Z," 7.63"
2018-01-04T07:38:36.809Z," 7.69"
2018-01-04T07:43:32.535Z," 7.63"
2018-01-04T07:48:29.323Z," 7.69"
2018-01-04T07:53:24.907Z," 7.76"
2018-01-04T07:58:20.808Z," 7.87"
2018-01-04T08:03:17.794Z," 7.85"
2018-01-04T08:08:13.257Z," 7.85"
2018-01-04T08:13:09.891Z," 7.88"
2018-01-04T08:18:05.142Z," 8.03"
2018-01-04T08:23:02.223Z," 8.03"
2018-01-04T08:28:00.009Z," 8.05"
2018-01-04T08:32:55.315Z," 8.06"
2018-01-04T08:37:51.122Z," 7.91"
2018-01-04T08:42:47.001Z," 8.06"
2018-01-04T08:47:42.672Z," 8.09"
2018-01-04T08:52:39.269Z," 8.12"
2018-01-04T08:57:35.129Z," 8.20"
2018-01-04T09:02:30.887Z," 8.13"
2018-01-04T09:07:26.581Z," 8.18"
2018-01-04T09:12:22.315Z," 8.15"
2018-01-04T09:17:18.197Z," 8.24"
2018-01-04T09:22:14.998Z," 8.19"
2018-01-04T09:27:10.468Z," 8.27"
2018-01-04T09:32:08.163Z," 8.27"
2018-01-04T09:37:04.342Z," 8.30"
2018-01-04T09:42:00.043Z," 8.24"
2018-01-04T09:46:55.797Z," 8.30"
2018-01-04T09:51:51.909Z," 8.31"
2018-01-04T09:56:48.857Z," 8.34"
2018-01-04T10:01:45.513Z," 8.26"
2018-01-04T10:06:42.162Z," 8.31"
2018-01-04T10:11:37.620Z," 8.44"
2018-01-04T10:16:34.716Z," 8.36"
2018-01-04T10:21:30.210Z," 8.36"
2018-01-04T10:26:26.032Z," 8.49"
2018-01-04T10:31:22.270Z," 8.55"
2018-01-04T10:36:18.068Z," 8.58"
2018-01-04T10:41:13.948Z," 8.67"
2018-01-04T10:46:09.828Z," 8.63"
2018-01-04T10:51:07.248Z," 8.74"
2018-01-04T10:56:03.819Z," 8.61"
2018-01-04T11:01:00.573Z," 8.79"
2018-01-04T11:05:57.121Z," 8.89"
2018-01-04T11:10:54.424Z," 8.99"
2018-01-04T11:15:50.512Z," 8.92"
2018-01-04T11:20:46.592Z," 9.02"
2018-01-04T11:25:43.590Z," 8.94"
2018-01-04T11:30:39.058Z," 9.06"
2018-01-04T11:35:36.266Z," 9.08"
2018-01-04T11:40:33.196Z," 9.00"
2018-01-04T11:45:29.010Z," 9.11"
2018-01-04T11:50:25.219Z," 9.14"
2018-01-04T11:55:21.243Z," 9.04"
2018-01-04T12:00:17.591Z," 9.00"
2018-01-04T12:05:15.306Z," 9.16"
2018-01-04T12:10:11.789Z," 8.95"
2018-01-04T12:15:07.439Z," 9.00"
2018-01-04T12:20:04.844Z," 8.91"
2018-01-04T12:25:01.003Z," 8.94"
2018-01-04T12:29:57.928Z," 8.97"
2018-01-04T12:34:53.801Z," 8.97"
2018-01-04T12:39:50.990Z," 8.87"
2018-01-04T12:44:46.403Z," 8.87"
2018-01-04T12:49:42.118Z," 9.04"
2018-01-04T12:54:38.006Z," 8.99"
2018-01-04T12:59:34.788Z," 8.92"
2018-01-04T13:04:30.364Z," 8.87"
2018-01-04T13:09:26.255Z," 8.89"
2018-01-04T13:14:21.996Z," 8.78"
2018-01-04T13:19:18.589Z," 8.85"
2018-01-04T13:24:16.261Z," 8.82"
2018-01-04T13:29:12.499Z," 8.79"
2018-01-04T13:34:08.073Z," 8.82"
2018-01-04T13:39:04.863Z," 8.82"
2018-01-04T13:44:01.433Z," 8.85"
2018-01-04T13:48:56.801Z," 8.49"
2018-01-04T13:53:53.287Z," 8.45"
2018-01-04T13:58:48.840Z," 8.23"
2018-01-04T14:03:45.521Z," 8.20"
2018-01-04T14:08:41.751Z," 8.12"
2018-01-04T14:13:38.392Z," 8.13"
2018-01-04T14:18:34.010Z," 8.09"
2018-01-04T14:23:31.470Z," 8.09"
2018-01-04T14:28:26.589Z," 8.00"
2018-01-04T14:33:22.440Z," 7.98"
2018-01-04T14:38:19.536Z," 7.91"
2018-01-04T14:43:14.787Z," 7.85"
2018-01-04T14:48:12.176Z," 7.87"
2018-01-04T14:53:07.692Z," 7.87"
2018-01-04T14:58:04.564Z," 7.80"
2018-01-04T15:02:59.812Z," 7.58"
2018-01-04T15:07:55.801Z," 7.70"
2018-01-04T15:12:52.461Z," 7.67"
2018-01-04T15:17:48.585Z," 7.66"
2018-01-04T15:22:44.274Z," 7.67"
2018-01-04T15:27:40.085Z," 7.60"
2018-01-04T15:32:36.377Z," 7.57"
2018-01-04T15:37:31.842Z," 7.60"
2018-01-04T15:42:28.761Z," 7.66"
2018-01-04T15:47:24.358Z," 7.56"
2018-01-04T15:52:20.229Z," 7.61"
2018-01-04T15:57:16.099Z," 7.63"
2018-01-04T16:02:12.830Z," 7.70"
2018-01-04T16:07:08.361Z," 7.82"
2018-01-04T16:12:05.235Z," 7.88"
2018-01-04T16:17:01.612Z," 8.03"
2018-01-04T16:21:58.004Z," 8.10"
2018-01-04T16:26:53.976Z," 8.23"
2018-01-04T16:31:49.707Z," 8.27"
2018-01-04T16:36:45.607Z," 8.23"
2018-01-04T16:41:41.396Z," 8.28"
2018-01-04T16:46:36.973Z," 8.41"
2018-01-04T16:51:32.885Z," 8.48"
2018-01-04T16:56:28.729Z," 8.53"
2018-01-04T17:01:24.461Z," 8.74"
2018-01-04T17:06:21.296Z," 8.84"
2018-01-04T17:11:16.914Z," 8.81"
2018-01-04T17:16:12.819Z," 9.03"
2018-01-04T17:21:09.748Z," 8.99"
2018-01-04T17:26:05.222Z," 8.94"
2018-01-04T17:31:01.209Z," 9.11"
2018-01-04T17:35:57.050Z," 9.11"
2018-01-04T17:40:53.658Z," 9.18"
2018-01-04T17:45:50.389Z," 9.25"
2018-01-04T17:50:47.282Z," 9.31"
2018-01-04T17:55:44.339Z," 9.37"
2018-01-04T18:00:40.685Z," 9.46"
2018-01-04T18:05:36.742Z," 9.48"
2018-01-04T18:10:33.219Z," 9.58"
2018-01-04T18:15:30.148Z," 9.66"
2018-01-04T18:20:26.521Z," 9.72"
2018-01-04T18:25:22.326Z," 9.65"
2018-01-04T18:30:19.136Z," 9.72"
2018-01-04T18:35:15.994Z," 9.79"
2018-01-04T18:40:11.718Z," 9.94"
2018-01-04T18:45:07.519Z,10.07
2018-01-04T18:50:03.441Z,10.04
2018-01-04T18:54:59.612Z,10.13
2018-01-04T18:59:55.435Z,10.15
2018-01-04T19:04:51.188Z,10.25
2018-01-04T19:09:47.205Z,10.17
2018-01-04T19:14:43.288Z,10.17
2018-01-04T19:19:39.014Z,10.25
2018-01-04T19:24:35.142Z,10.28
2018-01-04T19:29:31.883Z,10.31
2018-01-04T19:34:28.645Z,10.31
2018-01-04T19:39:24.195Z,10.41
2018-01-04T19:44:20.266Z,10.31
2018-01-04T19:49:17.015Z,10.13
2018-01-04T19:54:12.235Z,10.04
2018-01-04T19:59:09.705Z," 9.84"
2018-01-04T20:04:05.159Z," 9.72"
2018-01-04T20:09:02.877Z," 9.48"
2018-01-04T20:13:59.453Z," 9.51"
2018-01-04T20:18:55.596Z," 9.54"
2018-01-04T20:23:51.021Z," 9.47"
2018-01-04T20:28:46.683Z," 9.43"
2018-01-04T20:33:43.649Z," 9.50"
2018-01-04T20:38:39.326Z," 9.44"
2018-01-04T20:43:35.097Z," 9.37"
2018-01-04T20:48:30.601Z," 9.46"
2018-01-04T20:53:27.654Z," 9.55"
2018-01-04T20:58:23.576Z," 9.47"
2018-01-04T21:03:20.326Z," 9.40"
2018-01-04T21:08:16.982Z," 9.44"
2018-01-04T21:13:12.562Z," 9.32"
2018-01-04T21:18:09.369Z," 9.28"
2018-01-04T21:23:05.267Z," 9.29"
2018-01-04T21:28:00.738Z," 9.16"
2018-01-04T21:32:56.901Z," 9.21"
2018-01-04T21:37:52.428Z," 9.11"
2018-01-04T21:42:48.668Z," 9.14"
2018-01-04T21:47:45.459Z," 9.28"
2018-01-04T21:52:41.572Z," 9.18"
2018-01-04T21:57:37.312Z," 9.14"
2018-01-04T22:02:33.282Z," 9.08"
2018-01-04T22:07:30.001Z," 9.06"
2018-01-04T22:12:25.055Z," 9.02"
2018-01-04T22:17:20.839Z," 9.16"
2018-01-04T22:22:16.491Z," 9.13"
2018-01-04T22:27:12.279Z," 9.06"
2018-01-04T22:32:07.994Z," 8.97"
2018-01-04T22:37:04.456Z," 9.00"
2018-01-04T22:42:01.319Z," 8.94"
2018-01-04T22:46:57.641Z," 8.95"
2018-01-04T22:51:54.575Z," 8.82"
2018-01-04T22:56:49.972Z," 8.81"
2018-01-04T23:01:45.500Z," 8.84"
2018-01-04T23:06:43.740Z," 8.76"
2018-01-04T23:11:40.494Z," 8.79"
2018-01-04T23:16:37.536Z," 8.81"
2018-01-04T23:21:34.395Z," 8.79"
2018-01-04T23:26:31.195Z," 8.81"
2018-01-04T23:31:26.714Z," 8.70"
2018-01-04T23:36:23.616Z," 8.70"
2018-01-04T23:41:20.099Z," 8.73"
2018-01-04T23:46:15.815Z," 8.73"
2018-01-04T23:51:11.615Z," 8.64"
2018-01-04T23:56:07.478Z," 8.74"
